Time;durP1;ratioP1;P1;durP2;ratioP2;P2;SDS_P1;SDS_P2;PMS_P1;PMS_P2;Temp;Humidity;BMP_temperature;BMP_pressure;BME280_temperature;BME280_humidity;BME280_pressure;Samples;Min_cycle;Max_cycle;Signal;HPM_P1;HPM_P2
2021/08/15 00:00:50;12334.00;0.04;21.99;0.00;0.00;0.62;;;;;25.70;1.00;;;;;;2273916;61;2000;-87
2021/08/15 00:03:17;90069.00;0.30;156.43;0.00;0.00;0.62;;;;;25.60;1.00;;;;;;2284348;61;1348;-87
2021/08/15 00:05:44;171360.00;0.57;296.61;57492.00;0.19;100.14;;;;;25.60;1.00;;;;;;2273966;60;953;-88
2021/08/15 00:08:12;82668.00;0.28;143.65;0.00;0.00;0.62;;;;;25.60;1.00;;;;;;2284417;60;1032;-87
2021/08/15 00:10:39;214719.00;0.72;371.26;83022.00;0.28;144.26;;;;;25.80;1.00;;;;;;2277279;60;986;-86
2021/08/15 00:13:07;48688.00;0.16;84.92;0.00;0.00;0.62;;;;;25.90;1.00;;;;;;2284396;61;1409;-87
2021/08/15 00:15:34;0.00;0.00;0.62;0.00;0.00;0.62;;;;;25.80;1.00;;;;;;2277894;60;996;-87
2021/08/15 00:18:01;172944.00;0.58;299.34;0.00;0.00;0.62;;;;;25.80;1.00;;;;;;2274683;61;1015;-86
2021/08/15 00:20:28;42891.00;0.14;74.89;0.00;0.00;0.62;;;;;25.50;1.00;;;;;;2281254;60;1919;-88
2021/08/15 00:22:55;349141.00;1.16;602.38;79353.00;0.26;137.92;;;;;25.80;1.00;;;;;;2274579;61;998;-88
2021/08/15 00:25:23;278090.00;0.93;480.25;24830.00;0.08;43.63;;;;;25.90;1.00;;;;;;2274568;61;1419;-86
2021/08/15 00:27:50;46080.00;0.15;80.41;0.00;0.00;0.62;;;;;25.70;1.00;;;;;;2281280;60;1078;-89
2021/08/15 00:30:18;55150.00;0.18;96.09;0.00;0.00;0.62;;;;;25.40;1.00;;;;;;2277883;60;1035;-87
2021/08/15 00:32:46;71545.00;0.24;124.43;0.00;0.00;0.62;;;;;25.50;1.00;;;;;;2272358;61;1006;-86
2021/08/15 00:35:14;289817.00;0.97;500.41;49360.00;0.16;86.08;;;;;25.70;1.00;;;;;;2265677;61;1428;-87
2021/08/15 00:37:41;57447.00;0.19;100.06;0.00;0.00;0.62;;;;;25.40;1.00;;;;;;2269050;61;977;-87
2021/08/15 00:40:09;305097.00;1.02;526.68;12946.00;0.04;23.05;;;;;24.90;1.00;;;;;;2268986;61;2008;-88
2021/08/15 00:42:38;111048.00;0.37;192.64;0.00;0.00;0.62;;;;;24.30;2.10;;;;;;2265724;61;980;-87
2021/08/15 00:45:06;58026.00;0.19;101.06;0.00;0.00;0.62;;;;;24.30;2.50;;;;;;2268952;61;1322;-89
2021/08/15 00:47:33;44273.00;0.15;77.28;0.00;0.00;0.62;;;;;24.20;2.90;;;;;;2272404;61;1021;-89
2021/08/15 00:50:00;62550.00;0.21;108.88;0.00;0.00;0.62;;;;;24.10;2.60;;;;;;2270763;61;1049;-88
2021/08/15 00:52:28;223703.00;0.75;386.72;69664.00;0.23;121.18;;;;;24.10;3.10;;;;;;2277883;61;1069;-86
2021/08/15 00:54:57;115707.00;0.39;200.68;0.00;0.00;0.62;;;;;24.30;2.50;;;;;;2274533;61;1354;-87
2021/08/15 00:57:26;254690.00;0.85;440.02;27216.00;0.09;47.76;;;;;24.50;1.80;;;;;;2285090;60;953;-87
2021/08/15 00:59:54;126531.00;0.42;219.35;0.00;0.00;0.62;;;;;24.50;1.00;;;;;;2277889;60;1015;-87
2021/08/15 01:02:21;148443.00;0.49;257.12;0.00;0.00;0.62;;;;;24.60;1.00;;;;;;2274512;60;2026;-87
2021/08/15 01:04:48;78050.00;0.26;135.67;0.00;0.00;0.62;;;;;24.70;1.00;;;;;;2274513;61;1431;-87
2021/08/15 01:07:17;14360.00;0.05;25.50;0.00;0.00;0.62;;;;;24.90;1.00;;;;;;2274546;61;964;-86
2021/08/15 01:09:44;153357.00;0.51;265.59;43306.00;0.14;75.61;;;;;24.70;1.00;;;;;;2274530;60;941;-87
2021/08/15 01:12:13;400261.00;1.33;690.25;44884.00;0.15;78.34;;;;;24.50;1.10;;;;;;2274455;61;969;-87
2021/08/15 01:14:40;33146.00;0.11;58.03;0.00;0.00;0.62;;;;;24.50;1.00;;;;;;2277794;60;1479;-87
2021/08/15 01:17:08;182107.00;0.61;315.12;0.00;0.00;0.62;;;;;24.30;1.60;;;;;;2274487;61;931;-87
2021/08/15 01:19:35;37925.00;0.13;66.30;0.00;0.00;0.62;;;;;24.10;2.50;;;;;;2277776;61;988;-88
2021/08/15 01:22:03;252221.00;0.84;435.77;34671.00;0.12;60.67;;;;;24.30;1.80;;;;;;2284971;60;1989;-87
2021/08/15 01:24:30;21474.00;0.07;37.82;0.00;0.00;0.62;;;;;24.10;2.10;;;;;;2277721;60;1392;-88
2021/08/15 01:26:59;150176.00;0.50;260.11;28076.00;0.09;49.25;;;;;23.90;2.70;;;;;;2277619;61;1104;-87
2021/08/15 01:29:28;49033.00;0.16;85.51;0.00;0.00;0.62;;;;;23.90;3.20;;;;;;2277648;61;1084;-88
2021/08/15 01:31:56;19078.00;0.06;33.67;0.00;0.00;0.62;;;;;24.20;2.80;;;;;;2274494;61;1030;-87
2021/08/15 01:34:23;93662.00;0.31;162.63;18685.00;0.06;32.99;;;;;23.90;2.30;;;;;;2284941;60;1419;-86
2021/08/15 01:36:51;150608.00;0.50;260.86;0.00;0.00;0.62;;;;;23.80;3.00;;;;;;2284924;60;1003;-87
2021/08/15 01:39:18;5773.00;0.02;10.63;0.00;0.00;0.62;;;;;23.80;3.10;;;;;;2274459;60;1020;-87
2021/08/15 01:41:44;301356.00;1.00;520.25;55206.00;0.18;96.19;;;;;23.80;3.20;;;;;;2274402;60;1923;-87
2021/08/15 01:44:11;57471.00;0.19;100.10;0.00;0.00;0.62;;;;;23.90;3.00;;;;;;2284856;60;1322;-87
2021/08/15 01:46:40;15040.00;0.05;26.68;0.00;0.00;0.62;;;;;23.90;2.70;;;;;;2274450;60;1011;-88
2021/08/15 01:49:07;0.00;0.00;0.62;0.00;0.00;0.62;;;;;24.00;3.00;;;;;;2284705;60;1084;-88
2021/08/15 01:51:34;11586.00;0.04;20.70;0.00;0.00;0.62;;;;;23.70;3.10;;;;;;2277757;60;1025;-88
2021/08/15 01:54:02;14490.00;0.05;25.73;0.00;0.00;0.62;;;;;23.70;3.20;;;;;;2284677;60;1329;-88
2021/08/15 01:56:31;74.00;0.00;0.75;0.00;0.00;0.62;;;;;23.60;3.20;;;;;;2277698;61;1026;-86
2021/08/15 01:58:58;72111.00;0.24;125.41;0.00;0.00;0.62;;;;;23.60;3.20;;;;;;2277671;60;1004;-86
2021/08/15 02:01:25;215643.00;0.72;372.85;79655.00;0.27;138.44;;;;;23.40;4.10;;;;;;2277700;60;2001;-86
2021/08/15 02:03:53;147250.00;0.49;255.07;0.00;0.00;0.62;;;;;23.40;4.30;;;;;;2274353;61;1327;-87
2021/08/15 02:06:21;0.00;0.00;0.62;0.00;0.00;0.62;;;;;23.80;3.20;;;;;;2274349;60;958;-87
2021/08/15 02:08:50;129129.00;0.43;223.83;0.00;0.00;0.62;;;;;24.00;2.20;;;;;;2277697;61;1041;-87
2021/08/15 02:11:17;0.00;0.00;0.62;0.00;0.00;0.62;;;;;24.10;1.60;;;;;;2274306;61;1132;-88
2021/08/15 02:22:03;442704.00;1.48;763.23;95554.00;0.32;165.90;;;;;24.70;1.00;;;;;;2282523;60;2004;-85
2021/08/15 02:24:30;253505.00;0.85;437.98;76370.00;0.25;132.77;;;;;24.70;1.00;;;;;;2270172;61;1392;-85
2021/08/15 02:26:57;221035.00;0.74;382.12;73209.00;0.24;127.31;;;;;24.70;1.00;;;;;;2273537;60;958;-86
2021/08/15 02:29:23;231754.00;0.77;400.57;66985.00;0.22;116.55;;;;;24.70;1.00;;;;;;2270216;61;991;-86
2021/08/15 02:31:50;177406.00;0.59;307.02;68795.00;0.23;119.68;;;;;24.50;1.00;;;;;;2273541;61;976;-87
2021/08/15 02:34:17;195424.00;0.65;338.05;62328.00;0.21;108.50;;;;;24.50;1.00;;;;;;2280659;61;1443;-87
2021/08/15 02:36:44;33226.00;0.11;58.17;0.00;0.00;0.62;;;;;24.60;1.00;;;;;;2270188;61;935;-87
2021/08/15 02:39:12;0.00;0.00;0.62;0.00;0.00;0.62;;;;;24.60;1.00;;;;;;2269986;60;971;-86
2021/08/15 02:41:39;0.00;0.00;0.62;0.00;0.00;0.62;;;;;24.60;1.00;;;;;;2273454;61;1906;-87
2021/08/15 02:44:06;30145.00;0.10;52.83;0.00;0.00;0.62;;;;;24.60;1.00;;;;;;2280593;60;1474;-87
2021/08/15 02:46:33;0.00;0.00;0.62;0.00;0.00;0.62;;;;;24.70;1.00;;;;;;2270183;60;1020;-85
2021/08/15 02:49:00;50345.00;0.17;87.78;0.00;0.00;0.62;;;;;24.80;1.00;;;;;;2279129;60;903;-86
2021/08/15 02:51:27;104235.00;0.35;180.88;0.00;0.00;0.62;;;;;24.70;1.00;;;;;;2273513;60;1008;-87
2021/08/15 02:53:54;267805.00;0.89;462.57;80663.00;0.27;140.18;;;;;24.70;1.00;;;;;;2270139;61;1469;-86
2021/08/15 02:56:22;131818.00;0.44;228.46;0.00;0.00;0.62;;;;;24.70;1.00;;;;;;2270098;60;994;-86
2021/08/15 02:58:49;266482.00;0.89;460.29;117007.00;0.39;202.92;;;;;24.70;1.00;;;;;;2280608;60;1013;-86
2021/08/15 03:01:16;66697.00;0.22;116.05;0.00;0.00;0.62;;;;;24.70;1.00;;;;;;2280510;60;1990;-87
2021/08/15 03:03:43;60992.00;0.20;106.19;0.00;0.00;0.62;;;;;24.60;1.00;;;;;;2280552;60;1451;-86
2021/08/15 03:06:10;122546.00;0.41;212.47;0.00;0.00;0.62;;;;;24.20;1.00;;;;;;2270124;61;1021;-87
2021/08/15 03:08:37;34140.00;0.11;59.75;0.00;0.00;0.62;;;;;24.10;1.00;;;;;;2280522;60;985;-87
2021/08/15 03:11:04;468524.00;1.56;807.65;52281.00;0.17;91.13;;;;;23.90;1.30;;;;;;2280522;60;904;-89
2021/08/15 03:13:32;145070.00;0.48;251.31;31936.00;0.11;55.93;;;;;23.60;2.80;;;;;;2270010;61;1384;-87
2021/08/15 03:15:59;310433.00;1.03;535.85;36153.00;0.12;63.23;;;;;23.20;3.70;;;;;;2278993;60;1065;-88
2021/08/15 03:18:25;99279.00;0.33;172.33;0.00;0.00;0.62;;;;;22.90;5.50;;;;;;2270098;61;996;-87
2021/08/15 03:20:52;208389.00;0.69;360.36;28228.00;0.09;49.52;;;;;22.60;7.10;;;;;;2273320;61;2000;-88
2021/08/15 03:23:19;13035.00;0.04;23.21;0.00;0.00;0.62;;;;;22.60;8.00;;;;;;2267740;61;1330;-88
2021/08/15 03:25:46;116880.00;0.39;202.70;0.00;0.00;0.62;;;;;22.50;8.00;;;;;;2264458;61;940;-86
2021/08/15 03:28:13;328685.00;1.10;567.23;71116.00;0.24;123.69;;;;;22.10;8.40;;;;;;2264479;61;1200;-89
2021/08/15 03:30:41;7221.00;0.02;13.13;0.00;0.00;0.62;;;;;22.10;10.20;;;;;;2257268;61;984;-84
2021/08/15 03:33:08;80913.00;0.27;140.61;0.00;0.00;0.62;;;;;22.40;8.40;;;;;;2259719;61;1324;-85
2021/08/15 03:35:35;96844.00;0.32;168.12;0.00;0.00;0.62;;;;;23.00;6.20;;;;;;2259676;61;1108;-84
2021/08/15 03:38:02;27255.00;0.09;47.83;0.00;0.00;0.62;;;;;23.20;5.20;;;;;;2259940;61;1183;-84
2021/08/15 03:40:29;105276.00;0.35;182.68;0.00;0.00;0.62;;;;;23.40;4.20;;;;;;2261291;61;1198;-83
2021/08/15 03:42:56;39805.00;0.13;69.55;0.00;0.00;0.62;;;;;23.30;5.00;;;;;;2279790;61;1931;-85
2021/08/15 03:45:23;15775.00;0.05;27.95;0.00;0.00;0.62;;;;;23.70;2.80;;;;;;2280404;61;1459;-86
2021/08/15 03:47:51;21968.00;0.07;38.68;0.00;0.00;0.62;;;;;23.80;2.20;;;;;;2273984;61;1738;-83
2021/08/15 03:50:18;16907.00;0.06;29.91;0.00;0.00;0.62;;;;;24.00;1.60;;;;;;2272999;61;1225;-82
2021/08/15 03:52:45;0.00;0.00;0.62;0.00;0.00;0.62;;;;;24.20;1.30;;;;;;2273126;61;1180;-83
2021/08/15 03:55:12;3242.00;0.01;6.24;0.00;0.00;0.62;;;;;24.20;1.00;;;;;;2273219;61;1303;-83
2021/08/15 03:57:39;66376.00;0.22;115.50;0.00;0.00;0.62;;;;;24.20;1.90;;;;;;2273207;61;1104;-83
2021/08/15 04:00:08;107184.00;0.36;185.97;25422.00;0.08;44.66;;;;;24.00;1.20;;;;;;2274354;61;1189;-85
2021/08/15 04:02:36;0.00;0.00;0.62;0.00;0.00;0.62;;;;;23.80;1.40;;;;;;2273482;61;2056;-84
2021/08/15 04:05:05;0.00;0.00;0.62;0.00;0.00;0.62;;;;;23.80;1.70;;;;;;2274294;61;1658;-83
2021/08/15 04:07:32;0.00;0.00;0.62;0.00;0.00;0.62;;;;;24.00;1.50;;;;;;2274604;61;1260;-83
2021/08/15 04:09:59;0.00;0.00;0.62;0.00;0.00;0.62;;;;;24.20;1.00;;;;;;2274532;61;1097;-83
2021/08/15 04:12:25;8032.00;0.03;14.54;0.00;0.00;0.62;;;;;24.20;1.00;;;;;;2274210;61;1085;-83
2021/08/15 04:14:52;9299.00;0.03;16.73;0.00;0.00;0.62;;;;;24.20;1.00;;;;;;2263101;61;1322;-83
2021/08/15 04:17:19;21890.00;0.07;38.54;0.00;0.00;0.62;;;;;24.30;1.00;;;;;;2273710;61;1172;-83
2021/08/15 04:19:46;0.00;0.00;0.62;0.00;0.00;0.62;;;;;24.30;1.00;;;;;;2273256;61;1100;-83
2021/08/15 04:22:14;151185.00;0.50;261.85;9068.00;0.03;16.33;;;;;24.30;1.00;;;;;;2273930;61;1988;-84
2021/08/15 04:24:41;0.00;0.00;0.62;0.00;0.00;0.62;;;;;24.20;1.00;;;;;;2272955;61;1370;-83
2021/08/15 04:27:08;74494.00;0.25;129.53;0.00;0.00;0.62;;;;;24.20;1.00;;;;;;2273006;61;1129;-82
2021/08/15 04:29:39;44414.00;0.15;77.52;0.00;0.00;0.62;;;;;24.20;1.00;;;;;;2273515;61;1363;-83
2021/08/15 04:32:06;0.00;0.00;0.62;0.00;0.00;0.62;;;;;24.40;1.00;;;;;;2272898;61;1152;-84
2021/08/15 04:34:34;0.00;0.00;0.62;0.00;0.00;0.62;;;;;24.40;1.00;;;;;;2277112;60;1344;-87
2021/08/15 04:37:00;52104.00;0.17;90.82;0.00;0.00;0.62;;;;;24.30;1.00;;;;;;2276591;61;1137;-83
2021/08/15 04:39:29;67737.00;0.23;117.85;0.00;0.00;0.62;;;;;24.20;1.00;;;;;;2272704;61;1582;-84
2021/08/15 04:41:56;69098.00;0.23;120.20;0.00;0.00;0.62;;;;;24.30;1.00;;;;;;2272406;61;1938;-85
2021/08/15 04:44:23;74300.00;0.25;129.19;0.00;0.00;0.62;;;;;24.20;1.00;;;;;;2273179;61;1340;-83
2021/08/15 04:46:50;128509.00;0.43;222.76;0.00;0.00;0.62;;;;;24.20;1.00;;;;;;2273071;61;1259;-84
2021/08/15 04:49:17;107355.00;0.36;186.27;0.00;0.00;0.62;;;;;24.20;1.00;;;;;;2273233;61;1218;-84
2021/08/15 04:51:44;91824.00;0.31;159.46;19301.00;0.06;34.06;;;;;24.40;1.00;;;;;;2273459;61;1248;-84
2021/08/15 04:54:11;0.00;0.00;0.62;0.00;0.00;0.62;;;;;24.40;1.00;;;;;;2272373;61;1286;-83
2021/08/15 04:56:39;65012.00;0.22;113.14;0.00;0.00;0.62;;;;;24.60;1.00;;;;;;2273054;61;1124;-84
2021/08/15 04:59:06;0.00;0.00;0.62;0.00;0.00;0.62;;;;;24.90;1.00;;;;;;2273609;61;1790;-84
2021/08/15 05:01:33;0.00;0.00;0.62;0.00;0.00;0.62;;;;;25.10;1.00;;;;;;2273900;61;1990;-83
2021/08/15 05:04:00;218184.00;0.73;377.22;38165.00;0.13;66.71;;;;;25.30;1.00;;;;;;2272261;61;1311;-83
2021/08/15 05:06:27;55516.00;0.19;96.72;0.00;0.00;0.62;;;;;25.60;1.00;;;;;;2274231;61;1166;-83
2021/08/15 05:08:54;322593.00;1.08;556.76;116838.00;0.39;202.63;;;;;25.50;1.00;;;;;;2273618;61;1529;-82
2021/08/15 05:11:21;115339.00;0.38;200.04;0.00;0.00;0.62;;;;;25.30;1.00;;;;;;2273459;61;1174;-81
2021/08/15 05:13:49;41127.00;0.14;71.84;0.00;0.00;0.62;;;;;25.40;1.00;;;;;;2273017;61;1257;-82
2021/08/15 05:16:16;0.00;0.00;0.62;0.00;0.00;0.62;;;;;25.60;1.00;;;;;;2273287;61;1086;-82
2021/08/15 05:18:43;44714.00;0.15;78.04;0.00;0.00;0.62;;;;;25.60;1.00;;;;;;2278097;61;1047;-83
2021/08/15 05:21:10;68245.00;0.23;118.73;0.00;0.00;0.62;;;;;25.50;1.00;;;;;;2276390;61;1242;-83
2021/08/15 05:23:37;111537.00;0.37;193.48;0.00;0.00;0.62;;;;;25.60;1.00;;;;;;2273778;61;2025;-82
2021/08/15 05:26:04;0.00;0.00;0.62;0.00;0.00;0.62;;;;;25.80;1.00;;;;;;2274098;61;1145;-83
2021/08/15 05:28:31;0.00;0.00;0.62;0.00;0.00;0.62;;;;;25.90;1.00;;;;;;2274642;61;1121;-83
2021/08/15 05:30:59;64711.00;0.22;112.62;0.00;0.00;0.62;;;;;25.90;1.00;;;;;;2273698;61;1057;-82
2021/08/15 05:33:26;208172.00;0.69;359.99;76759.00;0.26;133.44;;;;;25.80;1.00;;;;;;2272875;61;1351;-83
2021/08/15 05:35:53;105832.00;0.35;183.64;37163.00;0.12;64.98;;;;;25.90;1.00;;;;;;2274980;61;1172;-83
2021/08/15 05:38:20;95684.00;0.32;166.12;0.00;0.00;0.62;;;;;26.30;1.00;;;;;;2274039;61;1560;-84
2021/08/15 05:40:47;0.00;0.00;0.62;0.00;0.00;0.62;;;;;27.40;1.00;;;;;;2273764;61;1088;-85
2021/08/15 05:43:14;10969.00;0.04;19.63;0.00;0.00;0.62;;;;;28.30;1.00;;;;;;2274015;61;2010;-85
2021/08/15 05:45:42;78789.00;0.26;136.95;0.00;0.00;0.62;;;;;29.30;1.00;;;;;;2274060;61;1188;-85
2021/08/15 05:48:10;0.00;0.00;0.62;0.00;0.00;0.62;;;;;30.30;1.00;;;;;;2273995;61;1292;-83
2021/08/15 05:50:37;77988.00;0.26;135.56;0.00;0.00;0.62;;;;;31.00;1.00;;;;;;2273855;61;1120;-82
2021/08/15 05:53:04;57153.00;0.19;99.55;0.00;0.00;0.62;;;;;31.50;1.00;;;;;;2273672;61;1356;-83
2021/08/15 05:55:31;352917.00;1.18;608.87;154741.00;0.52;267.98;;;;;32.10;1.00;;;;;;2273760;61;1196;-84
2021/08/15 05:57:58;8178.00;0.03;14.79;0.00;0.00;0.62;;;;;32.30;1.00;;;;;;2273235;61;1106;-82
2021/08/15 06:00:25;61129.00;0.20;106.43;0.00;0.00;0.62;;;;;32.60;1.00;;;;;;2273386;61;1148;-82
2021/08/15 06:02:52;89924.00;0.30;156.18;0.00;0.00;0.62;;;;;32.50;1.00;;;;;;2273525;61;2010;-82
2021/08/15 06:05:20;10758.00;0.04;19.26;0.00;0.00;0.62;;;;;32.50;1.00;;;;;;2273359;61;1368;-82
2021/08/15 06:07:47;0.00;0.00;0.62;0.00;0.00;0.62;;;;;33.40;1.00;;;;;;2273615;61;1223;-82
2021/08/15 06:10:14;193507.00;0.65;334.75;43895.00;0.15;76.63;;;;;34.00;1.00;;;;;;2274182;61;1138;-83
2021/08/15 06:12:41;115635.00;0.39;200.55;25077.00;0.08;44.06;;;;;34.70;1.00;;;;;;2274474;61;1160;-82
2021/08/15 06:15:12;45254.00;0.15;78.98;0.00;0.00;0.62;;;;;34.60;1.00;;;;;;2273494;61;1359;-82
2021/08/15 06:17:40;0.00;0.00;0.62;0.00;0.00;0.62;;;;;35.10;1.00;;;;;;2273983;61;1058;-82
2021/08/15 06:20:08;0.00;0.00;0.62;0.00;0.00;0.62;;;;;35.50;1.00;;;;;;2274874;61;1108;-85
2021/08/15 06:22:39;49452.00;0.16;86.24;0.00;0.00;0.62;;;;;35.60;1.00;;;;;;2263900;61;2001;-85
2021/08/15 06:25:08;0.00;0.00;0.62;0.00;0.00;0.62;;;;;35.50;1.00;;;;;;2273729;61;1518;-83
2021/08/15 06:27:35;0.00;0.00;0.62;0.00;0.00;0.62;;;;;35.70;1.00;;;;;;2276345;61;1159;-82
2021/08/15 06:30:02;184562.00;0.62;319.35;49720.00;0.17;86.70;;;;;35.20;1.00;;;;;;2276508;61;1180;-83
2021/08/15 06:32:29;28944.00;0.10;50.76;0.00;0.00;0.62;;;;;34.90;1.00;;;;;;2274341;61;1302;-82
2021/08/15 06:34:56;163463.00;0.54;283.01;0.00;0.00;0.62;;;;;34.80;1.00;;;;;;2273527;61;1371;-83
2021/08/15 06:37:23;0.00;0.00;0.62;0.00;0.00;0.62;;;;;35.50;1.00;;;;;;2273382;61;1180;-84
2021/08/15 06:39:51;39536.00;0.13;69.09;0.00;0.00;0.62;;;;;35.70;1.00;;;;;;2275192;61;1227;-83
2021/08/15 06:42:18;38747.00;0.13;67.72;0.00;0.00;0.62;;;;;35.70;1.00;;;;;;2278351;61;2010;-83
2021/08/15 06:44:45;0.00;0.00;0.62;0.00;0.00;0.62;;;;;36.00;1.00;;;;;;2274691;61;1316;-84
2021/08/15 06:47:12;0.00;0.00;0.62;0.00;0.00;0.62;;;;;35.60;1.00;;;;;;2274411;61;1152;-85
2021/08/15 06:49:38;238395.00;0.79;411.99;105875.00;0.35;183.71;;;;;36.20;1.00;;;;;;2273525;61;1083;-84
2021/08/15 06:52:06;74916.00;0.25;130.25;0.00;0.00;0.62;;;;;37.10;1.00;;;;;;2274358;61;1143;-84
2021/08/15 06:54:32;42678.00;0.14;74.52;0.00;0.00;0.62;;;;;36.90;1.00;;;;;;2275110;61;1284;-84
2021/08/15 06:57:01;114285.00;0.38;198.22;26647.00;0.09;46.78;;;;;36.80;1.00;;;;;;2275450;61;1173;-84
2021/08/15 06:59:28;609770.00;2.03;1051.09;176335.00;0.59;305.18;;;;;37.40;1.00;;;;;;2265471;61;1267;-85
2021/08/15 07:01:55;230545.00;0.77;398.49;47043.00;0.16;82.07;;;;;37.60;1.00;;;;;;2268188;61;1248;-84
2021/08/15 07:04:24;324983.00;1.08;560.86;114072.00;0.38;197.86;;;;;38.10;1.00;;;;;;2274762;61;2016;-84
2021/08/15 07:06:51;0.00;0.00;0.62;0.00;0.00;0.62;;;;;38.20;1.00;;;;;;2274564;61;1521;-85
2021/08/15 07:09:18;0.00;0.00;0.62;0.00;0.00;0.62;;;;;38.20;1.00;;;;;;2276938;61;1187;-86
2021/08/15 07:11:44;311001.00;1.04;536.83;39930.00;0.13;69.77;;;;;38.40;1.00;;;;;;2278350;61;1227;-86
2021/08/15 07:14:13;116889264.00;389.63;64691528.00;0.00;0.00;0.62;;;;;38.40;1.00;;;;;;2278651;61;1332;-85
2021/08/15 07:16:40;25807.00;0.09;45.32;0.00;0.00;0.62;;;;;38.40;1.00;;;;;;2278584;61;1102;-85
2021/08/15 07:19:07;118332.00;0.39;205.21;0.00;0.00;0.62;;;;;38.50;1.00;;;;;;2275422;61;1089;-85
2021/08/15 07:21:34;46654.00;0.16;81.40;0.00;0.00;0.62;;;;;38.70;1.00;;;;;;2275369;61;1140;-85
2021/08/15 07:24:01;70865.00;0.24;123.26;0.00;0.00;0.62;;;;;38.70;1.00;;;;;;2274600;61;2024;-84
2021/08/15 07:26:29;143840.00;0.48;249.19;56641.00;0.19;98.67;;;;;38.50;1.00;;;;;;2274574;61;1090;-84
2021/08/15 07:28:55;0.00;0.00;0.62;0.00;0.00;0.62;;;;;38.70;1.00;;;;;;2275210;61;1124;-85
2021/08/15 07:31:24;0.00;0.00;0.62;0.00;0.00;0.62;;;;;39.00;1.00;;;;;;2273714;61;1259;-84
2021/08/15 07:33:51;107435.00;0.36;186.40;0.00;0.00;0.62;;;;;39.00;1.00;;;;;;2273853;61;1364;-85
2021/08/15 07:36:17;0.00;0.00;0.62;0.00;0.00;0.62;;;;;38.30;1.00;;;;;;2274997;61;1144;-85
2021/08/15 07:38:46;190746.00;0.64;329.99;0.00;0.00;0.62;;;;;38.30;1.00;;;;;;2275858;61;1108;-85
2021/08/15 07:41:13;0.00;0.00;0.62;0.00;0.00;0.62;;;;;37.40;1.00;;;;;;2264398;61;1271;-85
2021/08/15 07:43:39;108350.00;0.36;187.98;0.00;0.00;0.62;;;;;37.40;1.00;;;;;;2274221;61;1941;-85
2021/08/15 07:46:06;0.00;0.00;0.62;0.00;0.00;0.62;;;;;38.50;1.00;;;;;;2274330;61;1585;-85
2021/08/15 07:48:34;55577.00;0.19;96.83;0.00;0.00;0.62;;;;;38.50;1.00;;;;;;2275110;61;1259;-85
2021/08/15 07:51:01;223368.00;0.74;386.14;86354.00;0.29;150.01;;;;;38.20;1.00;;;;;;2274243;61;1272;-85
2021/08/15 07:53:30;33187.00;0.11;58.10;0.00;0.00;0.62;;;;;38.30;1.00;;;;;;2274543;61;1472;-86
2021/08/15 07:55:58;0.00;0.00;0.62;0.00;0.00;0.62;;;;;38.00;1.00;;;;;;2273275;61;1168;-86
2021/08/15 07:58:25;0.00;0.00;0.62;0.00;0.00;0.62;;;;;38.40;1.00;;;;;;2275023;61;1136;-86
2021/08/15 08:00:53;221166.00;0.74;382.35;56454.00;0.19;98.35;;;;;38.20;1.00;;;;;;2276334;61;1144;-85
2021/08/15 08:03:21;0.00;0.00;0.62;0.00;0.00;0.62;;;;;38.00;1.00;;;;;;2276111;61;2002;-84
2021/08/15 08:05:50;49616.00;0.17;86.52;0.00;0.00;0.62;;;;;38.30;1.00;;;;;;2276127;61;1215;-85
2021/08/15 08:08:17;176843.00;0.59;306.05;49107.00;0.16;85.64;;;;;38.20;1.00;;;;;;2275366;61;1128;-86
2021/08/15 08:10:47;38410.00;0.13;67.14;0.00;0.00;0.62;;;;;37.90;1.00;;;;;;2275703;61;1125;-85
2021/08/15 08:13:14;93842.00;0.31;162.94;0.00;0.00;0.62;;;;;38.20;1.00;;;;;;2274734;61;1289;-86
2021/08/15 08:15:41;34640.00;0.12;60.61;0.00;0.00;0.62;;;;;37.60;1.00;;;;;;2274411;61;1061;-84
2021/08/15 08:18:09;116454.00;0.39;201.97;0.00;0.00;0.62;;;;;36.80;1.00;;;;;;2274416;61;1148;-85
2021/08/15 08:20:36;64997.00;0.22;113.11;0.00;0.00;0.62;;;;;36.40;1.00;;;;;;2273335;61;1095;-85
2021/08/15 08:23:06;73915.00;0.25;128.53;7515.00;0.03;13.64;;;;;36.90;1.00;;;;;;2273989;61;1939;-84
2021/08/15 08:25:34;227851.00;0.76;393.85;89048.00;0.30;154.66;;;;;36.30;1.00;;;;;;2274742;61;1183;-85
2021/08/15 08:28:01;250797.00;0.84;433.32;44610.00;0.15;77.86;;;;;36.50;1.00;;;;;;2273323;61;1634;-85
2021/08/15 08:30:28;99433.00;0.33;172.59;0.00;0.00;0.62;;;;;36.90;1.00;;;;;;2274919;61;1286;-85
2021/08/15 08:32:55;27080.00;0.09;47.53;0.00;0.00;0.62;;;;;37.80;1.00;;;;;;2275704;61;1243;-85
2021/08/15 08:35:22;71449.00;0.24;124.26;0.00;0.00;0.62;;;;;37.40;1.00;;;;;;2268069;61;1362;-83
2021/08/15 08:37:49;24309.00;0.08;42.73;0.00;0.00;0.62;;;;;37.30;1.00;;;;;;2275261;61;1204;-83
2021/08/15 08:40:18;0.00;0.00;0.62;0.00;0.00;0.62;;;;;37.70;1.00;;;;;;2276234;61;1175;-85
2021/08/15 08:42:47;75782.00;0.25;131.75;0.00;0.00;0.62;;;;;37.40;1.00;;;;;;2280228;61;2010;-86
2021/08/15 08:45:18;226698.00;0.76;391.87;32000.00;0.11;56.04;;;;;37.90;1.00;;;;;;2273800;61;1414;-87
2021/08/15 08:47:45;56852.00;0.19;99.03;0.00;0.00;0.62;;;;;37.90;1.00;;;;;;2270501;60;1251;-86
2021/08/15 08:50:12;144844.00;0.48;250.92;0.00;0.00;0.62;;;;;37.10;1.00;;;;;;2270402;61;1113;-87
2021/08/15 08:52:40;48593.00;0.16;84.75;0.00;0.00;0.62;;;;;37.10;1.00;;;;;;2270304;61;983;-86
2021/08/15 08:55:07;0.00;0.00;0.62;0.00;0.00;0.62;;;;;37.40;1.00;;;;;;2280748;60;1423;-86
2021/08/15 08:57:36;21553.00;0.07;37.96;0.00;0.00;0.62;;;;;37.20;1.00;;;;;;2270229;61;1154;-84
2021/08/15 09:00:04;42218.00;0.14;73.73;0.00;0.00;0.62;;;;;36.70;1.00;;;;;;2279885;61;1081;-84
2021/08/15 09:02:31;96518.00;0.32;167.56;0.00;0.00;0.62;;;;;37.20;1.00;;;;;;2273333;61;1180;-84
2021/08/15 09:04:58;36487.00;0.12;63.81;0.00;0.00;0.62;;;;;36.40;1.00;;;;;;2270009;61;1932;-85
2021/08/15 09:07:32;74057.00;0.25;128.77;0.00;0.00;0.62;;;;;36.60;1.00;;;;;;2280470;61;1191;-85
2021/08/15 09:10:01;7326.00;0.02;13.32;0.00;0.00;0.62;;;;;36.90;1.00;;;;;;2270501;61;1029;-86
2021/08/15 09:12:37;0.00;0.00;0.62;0.00;0.00;0.62;;;;;37.00;1.00;;;;;;2271606;61;1126;-86
2021/08/15 09:15:12;359676.00;1.20;620.49;40222.00;0.13;70.27;;;;;36.30;1.00;;;;;;2272046;61;1476;-87
2021/08/15 09:17:39;87039.00;0.29;151.19;21127.00;0.07;37.22;;;;;35.60;1.00;;;;;;2265558;61;983;-88
2021/08/15 09:20:08;108590.00;0.36;188.40;39415.00;0.13;68.88;;;;;35.10;1.00;;;;;;2272203;61;1079;-89
2021/08/15 09:25:08;355808.00;1.19;613.84;56687.00;0.19;98.75;;;;;34.70;1.00;;;;;;2285228;60;1909;-86
2021/08/15 09:27:39;327064.00;1.09;564.44;197105.00;0.66;340.94;;;;;34.60;1.00;;;;;;2281160;61;1121;-86
2021/08/15 09:30:16;0.00;0.00;0.62;0.00;0.00;0.62;;;;;34.70;1.00;;;;;;2277623;61;960;-85
2021/08/15 09:32:56;170819.00;0.57;295.68;0.00;0.00;0.62;;;;;34.70;1.00;;;;;;2284830;60;1038;-86
2021/08/15 09:35:27;111352.00;0.37;193.16;0.00;0.00;0.62;;;;;34.90;1.00;;;;;;2284375;60;1482;-86
2021/08/15 09:38:03;51781.00;0.17;90.27;0.00;0.00;0.62;;;;;34.50;1.00;;;;;;2284889;60;1046;-90
2021/08/15 09:43:03;241905.00;0.81;418.03;0.00;0.00;0.62;;;;;34.20;1.00;;;;;;2286805;60;1907;-89
2021/08/15 09:45:45;189186.00;0.63;327.31;41963.00;0.14;73.28;;;;;34.60;1.00;;;;;;2272180;61;1004;-87
2021/08/15 09:48:27;305017.00;1.02;526.54;61130.00;0.20;106.43;;;;;35.50;1.00;;;;;;2262119;61;1018;-89
2021/08/15 09:53:26;511968.00;1.71;882.43;0.00;0.00;0.62;;;;;34.90;1.00;;;;;;2286824;60;1434;-89
2021/08/15 09:55:53;282626.00;0.94;488.05;0.00;0.00;0.62;;;;;35.20;1.00;;;;;;2277733;60;965;-87
2021/08/15 09:58:21;605126.00;2.02;1043.07;46930.00;0.16;81.88;;;;;35.10;1.00;;;;;;2280177;60;951;-88
2021/08/15 10:00:49;224349.00;0.75;387.83;0.00;0.00;0.62;;;;;35.10;1.00;;;;;;2284868;60;1083;-87
2021/08/15 10:03:16;224658.00;0.75;388.36;0.00;0.00;0.62;;;;;34.90;1.00;;;;;;2277646;61;2000;-86
2021/08/15 10:05:44;85078.00;0.28;147.81;0.00;0.00;0.62;;;;;34.80;1.00;;;;;;2277401;60;1259;-87
2021/08/15 10:08:11;198373.00;0.66;343.12;0.00;0.00;0.62;;;;;34.70;1.00;;;;;;2279962;60;1027;-87
2021/08/15 10:10:39;513143.00;1.71;884.45;0.00;0.00;0.62;;;;;34.70;1.00;;;;;;2277702;60;948;-88
2021/08/15 10:13:07;353911.00;1.18;610.58;127967.00;0.43;221.82;;;;;34.60;1.00;;;;;;2277676;60;1336;-88
2021/08/15 10:15:38;167442.00;0.56;289.86;0.00;0.00;0.62;;;;;34.40;1.00;;;;;;2284819;60;1148;-90
2021/08/15 10:18:10;105623.00;0.35;183.28;0.00;0.00;0.62;;;;;34.60;1.00;;;;;;2284798;60;1029;-86
2021/08/15 10:23:07;159723.00;0.53;276.56;0.00;0.00;0.62;;;;;34.70;1.00;;;;;;2284904;60;1426;-84
2021/08/15 10:25:38;226615.00;0.76;391.73;68897.00;0.23;119.85;;;;;34.80;1.00;;;;;;2273176;61;1197;-84